sensor_id;sensor_type;location;lat;lon;timestamp;P1;durP1;ratioP1;P2;durP2;ratioP2
51523;SDS011;37610;51.790;21.590;2022-12-20T00:02:12;41.00;;;16.30;;
51523;SDS011;37610;51.790;21.590;2022-12-20T00:06:13;39.50;;;17.70;;
51523;SDS011;37610;51.790;21.590;2022-12-20T00:10:15;39.30;;;16.90;;
51523;SDS011;37610;51.790;21.590;2022-12-20T00:14:16;43.70;;;17.70;;
51523;SDS011;37610;51.790;21.590;2022-12-20T00:18:18;41.60;;;17.40;;
51523;SDS011;37610;51.790;21.590;2022-12-20T00:22:19;38.80;;;16.20;;
51523;SDS011;37610;51.790;21.590;2022-12-20T00:26:31;35.50;;;14.60;;
51523;SDS011;37610;51.790;21.590;2022-12-20T00:30:34;38.50;;;16.30;;
51523;SDS011;37610;51.790;21.590;2022-12-20T00:34:36;49.00;;;17.80;;
51523;SDS011;37610;51.790;21.590;2022-12-20T00:38:37;35.30;;;15.80;;
51523;SDS011;37610;51.790;21.590;2022-12-20T00:42:39;32.70;;;13.70;;
51523;SDS011;37610;51.790;21.590;2022-12-20T00:46:40;43.10;;;15.40;;
51523;SDS011;37610;51.790;21.590;2022-12-20T00:50:42;30.70;;;13.20;;
51523;SDS011;37610;51.790;21.590;2022-12-20T00:54:43;43.40;;;16.50;;
51523;SDS011;37610;51.790;21.590;2022-12-20T00:58:45;36.20;;;14.90;;
51523;SDS011;37610;51.790;21.590;2022-12-20T01:02:47;33.40;;;13.80;;
51523;SDS011;37610;51.790;21.590;2022-12-20T01:06:48;31.70;;;13.60;;
51523;SDS011;37610;51.790;21.590;2022-12-20T01:11:00;34.70;;;15.20;;
51523;SDS011;37610;51.790;21.590;2022-12-20T01:15:04;34.70;;;14.20;;
51523;SDS011;37610;51.790;21.590;2022-12-20T01:19:07;30.40;;;14.10;;
51523;SDS011;37610;51.790;21.590;2022-12-20T01:23:10;31.20;;;14.10;;
51523;SDS011;37610;51.790;21.590;2022-12-20T01:27:12;40.40;;;14.40;;
51523;SDS011;37610;51.790;21.590;2022-12-20T01:31:15;31.90;;;14.10;;
51523;SDS011;37610;51.790;21.590;2022-12-20T01:35:17;41.20;;;16.50;;
51523;SDS011;37610;51.790;21.590;2022-12-20T01:39:19;33.60;;;15.90;;
51523;SDS011;37610;51.790;21.590;2022-12-20T01:43:21;36.40;;;15.10;;
51523;SDS011;37610;51.790;21.590;2022-12-20T01:47:23;35.80;;;16.00;;
51523;SDS011;37610;51.790;21.590;2022-12-20T01:51:27;28.40;;;14.00;;
51523;SDS011;37610;51.790;21.590;2022-12-20T01:55:32;38.40;;;15.20;;
51523;SDS011;37610;51.790;21.590;2022-12-20T01:59:34;40.20;;;16.10;;
51523;SDS011;37610;51.790;21.590;2022-12-20T02:03:41;33.10;;;14.30;;
51523;SDS011;37610;51.790;21.590;2022-12-20T02:07:44;34.30;;;14.50;;
51523;SDS011;37610;51.790;21.590;2022-12-20T02:11:59;36.80;;;15.10;;
51523;SDS011;37610;51.790;21.590;2022-12-20T02:16:06;31.80;;;14.30;;
51523;SDS011;37610;51.790;21.590;2022-12-20T02:24:24;27.10;;;12.40;;
51523;SDS011;37610;51.790;21.590;2022-12-20T02:33:03;28.80;;;12.60;;
51523;SDS011;37610;51.790;21.590;2022-12-20T02:37:09;32.60;;;15.00;;
51523;SDS011;37610;51.790;21.590;2022-12-20T02:41:18;31.90;;;13.00;;
51523;SDS011;37610;51.790;21.590;2022-12-20T02:45:29;31.50;;;14.20;;
51523;SDS011;37610;51.790;21.590;2022-12-20T02:49:35;27.90;;;13.20;;
51523;SDS011;37610;51.790;21.590;2022-12-20T02:53:41;28.70;;;13.40;;
51523;SDS011;37610;51.790;21.590;2022-12-20T02:57:48;35.40;;;13.40;;
51523;SDS011;37610;51.790;21.590;2022-12-20T03:01:55;29.90;;;13.40;;
51523;SDS011;37610;51.790;21.590;2022-12-20T03:05:57;29.90;;;14.10;;
51523;SDS011;37610;51.790;21.590;2022-12-20T03:09:59;31.20;;;13.70;;
51523;SDS011;37610;51.790;21.590;2022-12-20T03:14:00;27.40;;;12.70;;
51523;SDS011;37610;51.790;21.590;2022-12-20T03:18:02;26.30;;;13.70;;
51523;SDS011;37610;51.790;21.590;2022-12-20T03:22:04;38.90;;;16.30;;
51523;SDS011;37610;51.790;21.590;2022-12-20T03:26:06;30.90;;;14.20;;
51523;SDS011;37610;51.790;21.590;2022-12-20T03:30:07;27.00;;;12.40;;
51523;SDS011;37610;51.790;21.590;2022-12-20T03:34:09;30.40;;;14.20;;
51523;SDS011;37610;51.790;21.590;2022-12-20T03:38:11;33.60;;;13.10;;
51523;SDS011;37610;51.790;21.590;2022-12-20T03:42:12;33.20;;;13.80;;
51523;SDS011;37610;51.790;21.590;2022-12-20T03:46:14;30.40;;;13.60;;
51523;SDS011;37610;51.790;21.590;2022-12-20T03:50:16;30.40;;;13.40;;
51523;SDS011;37610;51.790;21.590;2022-12-20T03:54:18;31.40;;;14.50;;
51523;SDS011;37610;51.790;21.590;2022-12-20T03:58:20;38.30;;;16.10;;
51523;SDS011;37610;51.790;21.590;2022-12-20T04:02:22;32.20;;;15.10;;
51523;SDS011;37610;51.790;21.590;2022-12-20T04:06:23;31.30;;;13.50;;
51523;SDS011;37610;51.790;21.590;2022-12-20T04:10:25;31.40;;;14.80;;
51523;SDS011;37610;51.790;21.590;2022-12-20T04:14:26;31.80;;;15.50;;
51523;SDS011;37610;51.790;21.590;2022-12-20T04:18:28;30.80;;;13.50;;
51523;SDS011;37610;51.790;21.590;2022-12-20T04:22:29;36.20;;;16.40;;
51523;SDS011;37610;51.790;21.590;2022-12-20T04:26:31;32.40;;;12.70;;
51523;SDS011;37610;51.790;21.590;2022-12-20T04:30:33;31.80;;;14.80;;
51523;SDS011;37610;51.790;21.590;2022-12-20T04:34:34;33.40;;;14.90;;
51523;SDS011;37610;51.790;21.590;2022-12-20T04:38:36;30.20;;;13.90;;
51523;SDS011;37610;51.790;21.590;2022-12-20T04:42:37;36.40;;;18.70;;
51523;SDS011;37610;51.790;21.590;2022-12-20T04:46:39;49.20;;;26.60;;
51523;SDS011;37610;51.790;21.590;2022-12-20T04:50:41;37.80;;;16.60;;
51523;SDS011;37610;51.790;21.590;2022-12-20T04:54:42;36.70;;;17.70;;
51523;SDS011;37610;51.790;21.590;2022-12-20T04:58:44;28.60;;;13.70;;
51523;SDS011;37610;51.790;21.590;2022-12-20T05:02:46;32.30;;;16.30;;
51523;SDS011;37610;51.790;21.590;2022-12-20T05:06:48;35.60;;;15.00;;
51523;SDS011;37610;51.790;21.590;2022-12-20T05:10:50;40.40;;;19.70;;
51523;SDS011;37610;51.790;21.590;2022-12-20T05:14:51;37.40;;;16.50;;
51523;SDS011;37610;51.790;21.590;2022-12-20T05:18:53;38.50;;;17.60;;
51523;SDS011;37610;51.790;21.590;2022-12-20T05:22:55;33.50;;;16.30;;
51523;SDS011;37610;51.790;21.590;2022-12-20T05:27:15;35.60;;;16.30;;
51523;SDS011;37610;51.790;21.590;2022-12-20T05:31:16;36.20;;;17.00;;
51523;SDS011;37610;51.790;21.590;2022-12-20T05:35:18;29.90;;;14.70;;
51523;SDS011;37610;51.790;21.590;2022-12-20T05:39:20;37.70;;;18.20;;
51523;SDS011;37610;51.790;21.590;2022-12-20T05:43:21;41.60;;;18.90;;
51523;SDS011;37610;51.790;21.590;2022-12-20T05:47:23;39.90;;;21.00;;
51523;SDS011;37610;51.790;21.590;2022-12-20T05:51:25;30.20;;;15.50;;
51523;SDS011;37610;51.790;21.590;2022-12-20T05:55:26;29.20;;;14.30;;
51523;SDS011;37610;51.790;21.590;2022-12-20T05:59:28;35.60;;;15.80;;
51523;SDS011;37610;51.790;21.590;2022-12-20T06:03:29;37.40;;;17.80;;
51523;SDS011;37610;51.790;21.590;2022-12-20T06:07:31;43.90;;;19.60;;
51523;SDS011;37610;51.790;21.590;2022-12-20T06:11:32;43.30;;;17.50;;
51523;SDS011;37610;51.790;21.590;2022-12-20T06:15:34;80.10;;;33.00;;
51523;SDS011;37610;51.790;21.590;2022-12-20T06:19:35;42.60;;;20.70;;
51523;SDS011;37610;51.790;21.590;2022-12-20T06:23:37;45.10;;;19.60;;
51523;SDS011;37610;51.790;21.590;2022-12-20T06:27:39;43.80;;;21.50;;
51523;SDS011;37610;51.790;21.590;2022-12-20T06:31:41;45.10;;;20.60;;
51523;SDS011;37610;51.790;21.590;2022-12-20T06:35:42;49.30;;;21.80;;
51523;SDS011;37610;51.790;21.590;2022-12-20T06:39:44;38.00;;;18.20;;
51523;SDS011;37610;51.790;21.590;2022-12-20T06:43:45;34.60;;;17.50;;
51523;SDS011;37610;51.790;21.590;2022-12-20T06:47:47;39.30;;;21.20;;
51523;SDS011;37610;51.790;21.590;2022-12-20T06:51:48;33.70;;;17.60;;
51523;SDS011;37610;51.790;21.590;2022-12-20T06:55:50;45.40;;;21.00;;
51523;SDS011;37610;51.790;21.590;2022-12-20T06:59:51;37.10;;;17.90;;
51523;SDS011;37610;51.790;21.590;2022-12-20T07:03:53;41.80;;;22.60;;
51523;SDS011;37610;51.790;21.590;2022-12-20T07:07:54;56.10;;;26.30;;
51523;SDS011;37610;51.790;21.590;2022-12-20T07:11:56;62.30;;;27.70;;
51523;SDS011;37610;51.790;21.590;2022-12-20T07:15:59;50.00;;;22.20;;
51523;SDS011;37610;51.790;21.590;2022-12-20T07:20:01;44.00;;;19.20;;
51523;SDS011;37610;51.790;21.590;2022-12-20T07:24:03;44.50;;;20.60;;
51523;SDS011;37610;51.790;21.590;2022-12-20T07:28:06;39.10;;;19.30;;
51523;SDS011;37610;51.790;21.590;2022-12-20T07:32:07;48.20;;;23.00;;
51523;SDS011;37610;51.790;21.590;2022-12-20T07:36:10;44.70;;;20.60;;
51523;SDS011;37610;51.790;21.590;2022-12-20T07:40:13;39.40;;;19.20;;
51523;SDS011;37610;51.790;21.590;2022-12-20T07:44:16;32.10;;;15.80;;
51523;SDS011;37610;51.790;21.590;2022-12-20T07:48:18;33.40;;;15.80;;
51523;SDS011;37610;51.790;21.590;2022-12-20T07:52:20;38.60;;;17.50;;
51523;SDS011;37610;51.790;21.590;2022-12-20T07:56:23;45.60;;;21.30;;
51523;SDS011;37610;51.790;21.590;2022-12-20T08:00:26;52.70;;;21.90;;
51523;SDS011;37610;51.790;21.590;2022-12-20T08:04:28;60.30;;;22.80;;
51523;SDS011;37610;51.790;21.590;2022-12-20T08:08:31;39.00;;;18.50;;
51523;SDS011;37610;51.790;21.590;2022-12-20T08:12:35;42.70;;;19.50;;
51523;SDS011;37610;51.790;21.590;2022-12-20T08:16:38;46.10;;;19.30;;
51523;SDS011;37610;51.790;21.590;2022-12-20T08:20:40;39.30;;;19.60;;
51523;SDS011;37610;51.790;21.590;2022-12-20T08:24:42;44.20;;;20.10;;
51523;SDS011;37610;51.790;21.590;2022-12-20T08:28:43;45.60;;;22.30;;
51523;SDS011;37610;51.790;21.590;2022-12-20T08:32:45;45.40;;;22.00;;
51523;SDS011;37610;51.790;21.590;2022-12-20T08:36:46;51.30;;;24.50;;
51523;SDS011;37610;51.790;21.590;2022-12-20T08:40:48;42.20;;;20.80;;
51523;SDS011;37610;51.790;21.590;2022-12-20T08:44:50;53.80;;;24.20;;
51523;SDS011;37610;51.790;21.590;2022-12-20T08:48:51;87.20;;;38.60;;
51523;SDS011;37610;51.790;21.590;2022-12-20T08:52:53;82.20;;;34.80;;
51523;SDS011;37610;51.790;21.590;2022-12-20T08:56:54;63.40;;;31.20;;
51523;SDS011;37610;51.790;21.590;2022-12-20T09:00:59;51.90;;;27.70;;
51523;SDS011;37610;51.790;21.590;2022-12-20T09:05:02;47.90;;;22.80;;
51523;SDS011;37610;51.790;21.590;2022-12-20T09:09:05;49.30;;;20.30;;
51523;SDS011;37610;51.790;21.590;2022-12-20T09:13:07;42.00;;;20.60;;
51523;SDS011;37610;51.790;21.590;2022-12-20T09:17:10;50.90;;;21.60;;
51523;SDS011;37610;51.790;21.590;2022-12-20T09:21:11;88.60;;;28.70;;
51523;SDS011;37610;51.790;21.590;2022-12-20T09:25:13;55.20;;;21.60;;
51523;SDS011;37610;51.790;21.590;2022-12-20T09:29:15;70.80;;;27.30;;
51523;SDS011;37610;51.790;21.590;2022-12-20T09:33:16;57.20;;;25.50;;
51523;SDS011;37610;51.790;21.590;2022-12-20T09:37:18;56.90;;;23.70;;
51523;SDS011;37610;51.790;21.590;2022-12-20T09:45:27;48.30;;;22.20;;
51523;SDS011;37610;51.790;21.590;2022-12-20T09:49:32;48.00;;;23.70;;
51523;SDS011;37610;51.790;21.590;2022-12-20T09:58:17;41.50;;;19.80;;
51523;SDS011;37610;51.790;21.590;2022-12-20T10:02:22;52.10;;;24.70;;
51523;SDS011;37610;51.790;21.590;2022-12-20T10:15:03;43.70;;;22.40;;
51523;SDS011;37610;51.790;21.590;2022-12-20T10:27:59;56.00;;;24.70;;
51523;SDS011;37610;51.790;21.590;2022-12-20T10:32:04;62.80;;;28.30;;
51523;SDS011;37610;51.790;21.590;2022-12-20T10:40:31;51.60;;;22.30;;
51523;SDS011;37610;51.790;21.590;2022-12-20T10:44:37;41.10;;;20.50;;
51523;SDS011;37610;51.790;21.590;2022-12-20T10:48:40;46.90;;;21.50;;
51523;SDS011;37610;51.790;21.590;2022-12-20T10:52:44;38.10;;;19.70;;
51523;SDS011;37610;51.790;21.590;2022-12-20T10:57:03;45.30;;;20.90;;
51523;SDS011;37610;51.790;21.590;2022-12-20T11:01:30;50.10;;;23.10;;
51523;SDS011;37610;51.790;21.590;2022-12-20T11:05:35;50.70;;;23.40;;
51523;SDS011;37610;51.790;21.590;2022-12-20T11:09:38;51.00;;;23.60;;
51523;SDS011;37610;51.790;21.590;2022-12-20T11:14:12;41.10;;;20.50;;
51523;SDS011;37610;51.790;21.590;2022-12-20T11:18:37;50.30;;;21.40;;
51523;SDS011;37610;51.790;21.590;2022-12-20T11:35:49;59.20;;;28.70;;
51523;SDS011;37610;51.790;21.590;2022-12-20T11:44:29;52.50;;;22.10;;
51523;SDS011;37610;51.790;21.590;2022-12-20T11:48:59;40.30;;;22.40;;
51523;SDS011;37610;51.790;21.590;2022-12-20T11:53:35;58.90;;;28.80;;
51523;SDS011;37610;51.790;21.590;2022-12-20T11:57:45;51.40;;;25.00;;
51523;SDS011;37610;51.790;21.590;2022-12-20T12:06:22;47.50;;;22.50;;
51523;SDS011;37610;51.790;21.590;2022-12-20T12:10:35;45.80;;;21.90;;
51523;SDS011;37610;51.790;21.590;2022-12-20T12:19:11;59.00;;;24.20;;
51523;SDS011;37610;51.790;21.590;2022-12-20T12:23:23;46.40;;;23.10;;
51523;SDS011;37610;51.790;21.590;2022-12-20T12:36:27;56.00;;;27.90;;
51523;SDS011;37610;51.790;21.590;2022-12-20T12:45:25;48.50;;;22.60;;
51523;SDS011;37610;51.790;21.590;2022-12-20T12:49:31;59.10;;;27.90;;
51523;SDS011;37610;51.790;21.590;2022-12-20T12:53:53;65.70;;;30.60;;
51523;SDS011;37610;51.790;21.590;2022-12-20T13:02:24;53.70;;;24.60;;
51523;SDS011;37610;51.790;21.590;2022-12-20T13:14:55;43.10;;;23.70;;
51523;SDS011;37610;51.790;21.590;2022-12-20T13:18:59;42.60;;;20.90;;
51523;SDS011;37610;51.790;21.590;2022-12-20T13:23:13;39.60;;;19.70;;
51523;SDS011;37610;51.790;21.590;2022-12-20T13:31:33;49.10;;;25.80;;
51523;SDS011;37610;51.790;21.590;2022-12-20T13:39:57;41.60;;;21.60;;
51523;SDS011;37610;51.790;21.590;2022-12-20T13:44:32;42.70;;;21.10;;
51523;SDS011;37610;51.790;21.590;2022-12-20T13:52:51;44.90;;;20.30;;
51523;SDS011;37610;51.790;21.590;2022-12-20T13:56:55;53.80;;;25.60;;
51523;SDS011;37610;51.790;21.590;2022-12-20T14:01:03;54.90;;;24.10;;
51523;SDS011;37610;51.790;21.590;2022-12-20T14:05:14;54.00;;;23.60;;
51523;SDS011;37610;51.790;21.590;2022-12-20T14:09:31;56.10;;;26.90;;
51523;SDS011;37610;51.790;21.590;2022-12-20T14:13:34;71.60;;;30.30;;
51523;SDS011;37610;51.790;21.590;2022-12-20T14:17:36;66.20;;;30.00;;
51523;SDS011;37610;51.790;21.590;2022-12-20T14:21:38;81.10;;;34.30;;
51523;SDS011;37610;51.790;21.590;2022-12-20T14:25:52;69.30;;;31.50;;
51523;SDS011;37610;51.790;21.590;2022-12-20T14:29:57;56.80;;;26.40;;
51523;SDS011;37610;51.790;21.590;2022-12-20T14:38:03;72.60;;;32.30;;
51523;SDS011;37610;51.790;21.590;2022-12-20T14:46:28;66.90;;;30.90;;
51523;SDS011;37610;51.790;21.590;2022-12-20T14:54:32;82.20;;;37.80;;
51523;SDS011;37610;51.790;21.590;2022-12-20T14:58:36;79.30;;;37.00;;
51523;SDS011;37610;51.790;21.590;2022-12-20T15:07:30;216.40;;;74.30;;
51523;SDS011;37610;51.790;21.590;2022-12-20T15:11:32;139.00;;;51.10;;
51523;SDS011;37610;51.790;21.590;2022-12-20T15:15:35;109.40;;;49.60;;
51523;SDS011;37610;51.790;21.590;2022-12-20T15:19:37;129.80;;;57.90;;
51523;SDS011;37610;51.790;21.590;2022-12-20T15:23:58;129.30;;;54.50;;
51523;SDS011;37610;51.790;21.590;2022-12-20T15:28:08;253.50;;;96.30;;
51523;SDS011;37610;51.790;21.590;2022-12-20T15:32:20;106.90;;;49.10;;
51523;SDS011;37610;51.790;21.590;2022-12-20T15:36:28;122.10;;;50.50;;
51523;SDS011;37610;51.790;21.590;2022-12-20T15:40:30;93.40;;;43.20;;
51523;SDS011;37610;51.790;21.590;2022-12-20T15:44:32;162.00;;;69.10;;
51523;SDS011;37610;51.790;21.590;2022-12-20T15:48:36;144.50;;;52.50;;
51523;SDS011;37610;51.790;21.590;2022-12-20T15:52:37;180.20;;;63.50;;
51523;SDS011;37610;51.790;21.590;2022-12-20T15:56:39;162.30;;;57.90;;
51523;SDS011;37610;51.790;21.590;2022-12-20T16:00:41;310.20;;;107.10;;
51523;SDS011;37610;51.790;21.590;2022-12-20T16:04:43;404.00;;;204.60;;
51523;SDS011;37610;51.790;21.590;2022-12-20T16:08:44;157.80;;;71.50;;
51523;SDS011;37610;51.790;21.590;2022-12-20T16:12:46;119.70;;;51.50;;
51523;SDS011;37610;51.790;21.590;2022-12-20T16:16:47;117.80;;;47.50;;
51523;SDS011;37610;51.790;21.590;2022-12-20T16:20:50;349.90;;;131.60;;
51523;SDS011;37610;51.790;21.590;2022-12-20T16:24:51;267.00;;;97.10;;
51523;SDS011;37610;51.790;21.590;2022-12-20T16:28:53;289.70;;;118.80;;
51523;SDS011;37610;51.790;21.590;2022-12-20T16:32:57;326.00;;;123.50;;
51523;SDS011;37610;51.790;21.590;2022-12-20T16:41:13;364.30;;;127.00;;
51523;SDS011;37610;51.790;21.590;2022-12-20T16:49:47;194.20;;;70.40;;
51523;SDS011;37610;51.790;21.590;2022-12-20T16:58:39;250.10;;;79.80;;
51523;SDS011;37610;51.790;21.590;2022-12-20T17:02:44;152.60;;;61.00;;
51523;SDS011;37610;51.790;21.590;2022-12-20T17:11:21;139.90;;;53.00;;
51523;SDS011;37610;51.790;21.590;2022-12-20T17:15:25;129.60;;;53.90;;
51523;SDS011;37610;51.790;21.590;2022-12-20T17:19:29;189.50;;;83.40;;
51523;SDS011;37610;51.790;21.590;2022-12-20T17:23:31;101.50;;;48.60;;
51523;SDS011;37610;51.790;21.590;2022-12-20T17:27:38;118.40;;;53.00;;
51523;SDS011;37610;51.790;21.590;2022-12-20T17:31:40;118.80;;;51.00;;
51523;SDS011;37610;51.790;21.590;2022-12-20T17:35:51;151.80;;;62.20;;
51523;SDS011;37610;51.790;21.590;2022-12-20T17:44:23;125.30;;;58.10;;
51523;SDS011;37610;51.790;21.590;2022-12-20T17:48:26;108.40;;;49.00;;
51523;SDS011;37610;51.790;21.590;2022-12-20T17:52:28;111.40;;;52.10;;
51523;SDS011;37610;51.790;21.590;2022-12-20T17:56:33;153.20;;;65.00;;
51523;SDS011;37610;51.790;21.590;2022-12-20T18:00:36;184.50;;;74.30;;
51523;SDS011;37610;51.790;21.590;2022-12-20T18:04:37;148.60;;;58.00;;
51523;SDS011;37610;51.790;21.590;2022-12-20T18:08:39;113.30;;;47.80;;
51523;SDS011;37610;51.790;21.590;2022-12-20T18:12:41;131.30;;;57.60;;
51523;SDS011;37610;51.790;21.590;2022-12-20T18:16:43;103.10;;;45.60;;
51523;SDS011;37610;51.790;21.590;2022-12-20T18:20:44;105.20;;;44.40;;
51523;SDS011;37610;51.790;21.590;2022-12-20T18:24:46;149.40;;;59.80;;
51523;SDS011;37610;51.790;21.590;2022-12-20T18:38:45;67.70;;;34.30;;
51523;SDS011;37610;51.790;21.590;2022-12-20T18:42:48;88.60;;;42.20;;
51523;SDS011;37610;51.790;21.590;2022-12-20T18:46:49;115.00;;;49.70;;
51523;SDS011;37610;51.790;21.590;2022-12-20T18:50:51;103.90;;;44.80;;
51523;SDS011;37610;51.790;21.590;2022-12-20T18:54:58;167.40;;;76.10;;
51523;SDS011;37610;51.790;21.590;2022-12-20T18:59:00;132.00;;;60.80;;
51523;SDS011;37610;51.790;21.590;2022-12-20T19:03:02;104.30;;;46.70;;
51523;SDS011;37610;51.790;21.590;2022-12-20T19:15:31;196.20;;;72.70;;
51523;SDS011;37610;51.790;21.590;2022-12-20T19:19:33;211.10;;;75.30;;
51523;SDS011;37610;51.790;21.590;2022-12-20T19:23:34;162.20;;;60.80;;
51523;SDS011;37610;51.790;21.590;2022-12-20T19:27:37;197.90;;;66.80;;
51523;SDS011;37610;51.790;21.590;2022-12-20T19:31:39;170.20;;;67.10;;
51523;SDS011;37610;51.790;21.590;2022-12-20T19:35:41;101.60;;;46.40;;
51523;SDS011;37610;51.790;21.590;2022-12-20T19:39:42;145.60;;;50.40;;
51523;SDS011;37610;51.790;21.590;2022-12-20T19:43:45;125.00;;;50.10;;
51523;SDS011;37610;51.790;21.590;2022-12-20T19:47:48;127.20;;;53.20;;
51523;SDS011;37610;51.790;21.590;2022-12-20T19:51:53;143.00;;;58.00;;
51523;SDS011;37610;51.790;21.590;2022-12-20T19:55:55;139.00;;;51.40;;
51523;SDS011;37610;51.790;21.590;2022-12-20T19:59:56;204.60;;;76.90;;
51523;SDS011;37610;51.790;21.590;2022-12-20T20:03:58;120.10;;;47.70;;
51523;SDS011;37610;51.790;21.590;2022-12-20T20:08:00;135.00;;;55.50;;
51523;SDS011;37610;51.790;21.590;2022-12-20T20:12:02;154.40;;;56.30;;
51523;SDS011;37610;51.790;21.590;2022-12-20T20:16:05;106.20;;;45.40;;
51523;SDS011;37610;51.790;21.590;2022-12-20T20:20:07;112.10;;;43.70;;
51523;SDS011;37610;51.790;21.590;2022-12-20T20:24:10;88.50;;;42.30;;
51523;SDS011;37610;51.790;21.590;2022-12-20T20:28:12;107.60;;;50.30;;
51523;SDS011;37610;51.790;21.590;2022-12-20T20:32:14;143.80;;;61.20;;
51523;SDS011;37610;51.790;21.590;2022-12-20T20:36:16;119.10;;;49.30;;
51523;SDS011;37610;51.790;21.590;2022-12-20T20:40:20;177.70;;;58.80;;
51523;SDS011;37610;51.790;21.590;2022-12-20T20:44:21;155.10;;;57.80;;
51523;SDS011;37610;51.790;21.590;2022-12-20T20:48:23;154.80;;;58.30;;
51523;SDS011;37610;51.790;21.590;2022-12-20T20:52:24;107.10;;;45.90;;
51523;SDS011;37610;51.790;21.590;2022-12-20T20:56:26;102.20;;;42.90;;
51523;SDS011;37610;51.790;21.590;2022-12-20T21:00:27;96.80;;;40.90;;
51523;SDS011;37610;51.790;21.590;2022-12-20T21:04:31;85.30;;;41.10;;
51523;SDS011;37610;51.790;21.590;2022-12-20T21:08:33;75.10;;;33.90;;
51523;SDS011;37610;51.790;21.590;2022-12-20T21:12:36;73.20;;;35.50;;
51523;SDS011;37610;51.790;21.590;2022-12-20T21:16:39;84.20;;;38.50;;
51523;SDS011;37610;51.790;21.590;2022-12-20T21:20:41;81.90;;;34.20;;
51523;SDS011;37610;51.790;21.590;2022-12-20T21:24:43;62.60;;;28.60;;
51523;SDS011;37610;51.790;21.590;2022-12-20T21:28:45;72.50;;;33.90;;
51523;SDS011;37610;51.790;21.590;2022-12-20T21:32:47;71.40;;;31.70;;
51523;SDS011;37610;51.790;21.590;2022-12-20T21:36:48;64.70;;;31.80;;
51523;SDS011;37610;51.790;21.590;2022-12-20T21:40:50;90.50;;;37.50;;
51523;SDS011;37610;51.790;21.590;2022-12-20T21:44:51;72.30;;;32.40;;
51523;SDS011;37610;51.790;21.590;2022-12-20T21:48:53;76.60;;;35.30;;
51523;SDS011;37610;51.790;21.590;2022-12-20T21:52:55;73.30;;;33.60;;
51523;SDS011;37610;51.790;21.590;2022-12-20T21:56:56;81.90;;;36.30;;
51523;SDS011;37610;51.790;21.590;2022-12-20T22:01:04;83.30;;;34.80;;
51523;SDS011;37610;51.790;21.590;2022-12-20T22:05:07;69.70;;;32.90;;
51523;SDS011;37610;51.790;21.590;2022-12-20T22:09:09;74.40;;;34.00;;
51523;SDS011;37610;51.790;21.590;2022-12-20T22:13:12;66.60;;;30.80;;
51523;SDS011;37610;51.790;21.590;2022-12-20T22:17:14;58.50;;;29.20;;
51523;SDS011;37610;51.790;21.590;2022-12-20T22:21:16;56.10;;;27.00;;
51523;SDS011;37610;51.790;21.590;2022-12-20T22:25:18;56.70;;;28.60;;
51523;SDS011;37610;51.790;21.590;2022-12-20T22:29:20;61.00;;;28.40;;
51523;SDS011;37610;51.790;21.590;2022-12-20T22:33:21;71.40;;;33.60;;
51523;SDS011;37610;51.790;21.590;2022-12-20T22:37:23;67.80;;;33.20;;
51523;SDS011;37610;51.790;21.590;2022-12-20T22:41:26;64.30;;;29.40;;
51523;SDS011;37610;51.790;21.590;2022-12-20T22:45:30;59.90;;;28.30;;
51523;SDS011;37610;51.790;21.590;2022-12-20T22:49:31;68.80;;;31.80;;
51523;SDS011;37610;51.790;21.590;2022-12-20T22:53:33;57.00;;;27.90;;
51523;SDS011;37610;51.790;21.590;2022-12-20T22:57:36;57.30;;;26.20;;
51523;SDS011;37610;51.790;21.590;2022-12-20T23:01:37;68.50;;;31.80;;
51523;SDS011;37610;51.790;21.590;2022-12-20T23:05:39;66.00;;;29.50;;
51523;SDS011;37610;51.790;21.590;2022-12-20T23:09:41;60.30;;;26.10;;
51523;SDS011;37610;51.790;21.590;2022-12-20T23:13:42;63.90;;;28.80;;
51523;SDS011;37610;51.790;21.590;2022-12-20T23:18:03;52.60;;;27.10;;
51523;SDS011;37610;51.790;21.590;2022-12-20T23:22:04;54.70;;;25.60;;
51523;SDS011;37610;51.790;21.590;2022-12-20T23:26:24;54.60;;;26.00;;
51523;SDS011;37610;51.790;21.590;2022-12-20T23:30:26;62.20;;;27.80;;
51523;SDS011;37610;51.790;21.590;2022-12-20T23:34:28;68.60;;;29.20;;
51523;SDS011;37610;51.790;21.590;2022-12-20T23:38:33;53.10;;;25.70;;
51523;SDS011;37610;51.790;21.590;2022-12-20T23:42:37;51.80;;;24.50;;
51523;SDS011;37610;51.790;21.590;2022-12-20T23:46:40;51.30;;;22.50;;
51523;SDS011;37610;51.790;21.590;2022-12-20T23:50:41;69.20;;;27.80;;
51523;SDS011;37610;51.790;21.590;2022-12-20T23:54:43;65.60;;;28.10;;
51523;SDS011;37610;51.790;21.590;2022-12-20T23:58:48;54.00;;;25.10;;
